Time;durP1;ratioP1;P1;durP2;ratioP2;P2;SDS_P1;SDS_P2;PMS_P1;PMS_P2;Temp;Humidity;BMP_temperature;BMP_pressure;BME280_temperature;BME280_humidity;BME280_pressure;Samples;Min_cycle;Max_cycle;Signal;HPM_P1;HPM_P2
2024/02/22 00:02:08;;;;;;;43.63;16.33;;;;;;;;;;5014690;28;20041;-65
2024/02/22 00:04:34;;;;;;;48.83;17.30;;;;;;;;;;5030039;28;20113;-64
2024/02/22 00:07:00;;;;;;;40.90;15.52;;;;;;;;;;5036229;28;20045;-65
2024/02/22 00:09:26;;;;;;;48.85;16.42;;;;;;;;;;5032095;28;20049;-65
2024/02/22 00:11:53;;;;;;;42.10;15.68;;;;;;;;;;5037115;28;20033;-65
2024/02/22 00:14:19;;;;;;;44.88;16.27;;;;;;;;;;5037944;28;20620;-65
2024/02/22 00:16:45;;;;;;;41.50;14.88;;;;;;;;;;5037098;28;20127;-65
2024/02/22 00:19:11;;;;;;;43.40;15.80;;;;;;;;;;5038289;28;20480;-64
2024/02/22 00:21:37;;;;;;;45.92;16.48;;;;;;;;;;5030137;28;20041;-65
2024/02/22 00:24:03;;;;;;;38.47;16.20;;;;;;;;;;5037070;28;20044;-65
2024/02/22 00:26:30;;;;;;;39.80;15.18;;;;;;;;;;5035025;28;20049;-65
2024/02/22 00:28:56;;;;;;;40.00;15.35;;;;;;;;;;5011988;28;20414;-65
2024/02/22 00:31:22;;;;;;;46.63;15.98;;;;;;;;;;5037124;28;20220;-64
2024/02/22 00:33:49;;;;;;;46.45;16.17;;;;;;;;;;5028578;28;20057;-64
2024/02/22 00:36:15;;;;;;;46.63;16.38;;;;;;;;;;5018121;28;20056;-65
2024/02/22 00:38:41;;;;;;;48.22;16.70;;;;;;;;;;5030557;28;20477;-65
2024/02/22 00:41:07;;;;;;;50.55;17.50;;;;;;;;;;5038419;28;20042;-65
2024/02/22 00:43:34;;;;;;;49.05;17.02;;;;;;;;;;5031400;28;20227;-64
2024/02/22 00:46:00;;;;;;;45.55;17.33;;;;;;;;;;5023209;28;20045;-65
2024/02/22 00:48:26;;;;;;;59.67;19.95;;;;;;;;;;5020128;28;20037;-64
2024/02/22 00:50:52;;;;;;;56.28;19.48;;;;;;;;;;5023305;28;20139;-65
2024/02/22 00:53:19;;;;;;;60.08;21.27;;;;;;;;;;5000849;28;20152;-65
2024/02/22 00:55:45;;;;;;;63.58;20.25;;;;;;;;;;5018537;28;20087;-65
2024/02/22 00:58:11;;;;;;;66.28;21.20;;;;;;;;;;5019593;28;20053;-65
2024/02/22 01:00:37;;;;;;;68.20;22.02;;;;;;;;;;5023193;28;20128;-64
2024/02/22 01:03:04;;;;;;;65.95;21.58;;;;;;;;;;5021591;28;20693;-64
2024/02/22 01:05:31;;;;;;;67.78;21.30;;;;;;;;;;5017375;28;20140;-65
2024/02/22 01:07:57;;;;;;;63.15;20.63;;;;;;;;;;5019510;28;20037;-64
2024/02/22 01:10:23;;;;;;;74.10;22.65;;;;;;;;;;5015003;28;20038;-65
2024/02/22 01:12:50;;;;;;;85.55;23.27;;;;;;;;;;5016249;28;20096;-65
2024/02/22 01:15:16;;;;;;;81.60;23.35;;;;;;;;;;5015216;28;20128;-65
2024/02/22 01:17:43;;;;;;;69.43;21.60;;;;;;;;;;5018309;28;20057;-65
2024/02/22 01:20:10;;;;;;;59.97;20.70;;;;;;;;;;5021168;28;20056;-65
2024/02/22 01:22:37;;;;;;;59.88;21.27;;;;;;;;;;5019912;28;21380;-65
2024/02/22 01:25:03;;;;;;;74.28;21.67;;;;;;;;;;5016977;28;20094;-65
2024/02/22 01:27:30;;;;;;;80.38;23.42;;;;;;;;;;5016817;28;20555;-64
2024/02/22 01:29:57;;;;;;;102.78;25.98;;;;;;;;;;5017935;28;20068;-65
2024/02/22 01:32:23;;;;;;;89.25;24.95;;;;;;;;;;5020807;28;20481;-65
2024/02/22 01:34:49;;;;;;;92.90;27.13;;;;;;;;;;5021430;28;20053;-65
2024/02/22 01:37:15;;;;;;;86.35;26.65;;;;;;;;;;5020162;28;21332;-65
2024/02/22 01:39:42;;;;;;;95.22;26.58;;;;;;;;;;5022485;28;20139;-64
2024/02/22 01:42:08;;;;;;;109.60;27.38;;;;;;;;;;5019173;28;20048;-65
2024/02/22 01:44:34;;;;;;;113.10;30.05;;;;;;;;;;5018508;28;20068;-65
2024/02/22 01:47:00;;;;;;;95.72;26.38;;;;;;;;;;5023175;28;20033;-65
2024/02/22 01:49:26;;;;;;;105.20;29.23;;;;;;;;;;5023351;28;20132;-65
2024/02/22 01:51:56;;;;;;;100.78;28.20;;;;;;;;;;5016991;28;20053;-65
2024/02/22 01:54:22;;;;;;;128.60;30.65;;;;;;;;;;5020254;28;20132;-65
2024/02/22 01:56:48;;;;;;;114.05;29.15;;;;;;;;;;5017577;28;20045;-65
2024/02/22 01:59:15;;;;;;;124.20;29.58;;;;;;;;;;5017211;28;20076;-65
2024/02/22 02:01:42;;;;;;;122.60;29.00;;;;;;;;;;5016560;28;20049;-64
2024/02/22 02:04:10;;;;;;;117.38;29.33;;;;;;;;;;5027273;28;20063;-65
2024/02/22 02:06:36;;;;;;;121.03;29.92;;;;;;;;;;5029514;28;20053;-64
2024/02/22 02:09:02;;;;;;;127.18;30.63;;;;;;;;;;5030403;28;20041;-65
2024/02/22 02:11:28;;;;;;;124.95;29.88;;;;;;;;;;5031505;28;20102;-65
2024/02/22 02:13:55;;;;;;;126.60;29.58;;;;;;;;;;5032443;28;20044;-65
2024/02/22 02:16:21;;;;;;;151.77;30.00;;;;;;;;;;5030772;28;20054;-65
2024/02/22 02:18:47;;;;;;;129.32;28.35;;;;;;;;;;5032086;28;20262;-65
2024/02/22 02:21:13;;;;;;;131.43;29.42;;;;;;;;;;5032282;28;20049;-65
2024/02/22 02:23:50;;;;;;;159.82;31.40;;;;;;;;;;5032996;28;20041;-65
2024/02/22 02:26:17;;;;;;;165.15;30.17;;;;;;;;;;5024662;28;20346;-65
2024/02/22 02:28:43;;;;;;;154.00;30.23;;;;;;;;;;5023373;28;20124;-65
2024/02/22 02:31:09;;;;;;;150.10;30.25;;;;;;;;;;5024397;28;20532;-65
2024/02/22 02:33:35;;;;;;;147.43;30.52;;;;;;;;;;5003977;28;20090;-65
2024/02/22 02:36:01;;;;;;;164.73;30.45;;;;;;;;;;5022412;28;20163;-65
2024/02/22 02:38:27;;;;;;;161.07;29.70;;;;;;;;;;5025470;28;20082;-65
2024/02/22 02:40:54;;;;;;;154.70;29.17;;;;;;;;;;5024738;28;20382;-65
2024/02/22 02:43:20;;;;;;;157.77;29.88;;;;;;;;;;5024039;28;20047;-65
2024/02/22 02:45:46;;;;;;;148.40;28.92;;;;;;;;;;5025886;28;20047;-65
2024/02/22 02:48:14;;;;;;;132.73;26.17;;;;;;;;;;5029500;28;20072;-65
2024/02/22 02:50:40;;;;;;;152.02;27.05;;;;;;;;;;5010954;28;20606;-65
2024/02/22 02:53:06;;;;;;;152.30;29.27;;;;;;;;;;5027296;28;20045;-65
2024/02/22 02:55:32;;;;;;;134.65;27.83;;;;;;;;;;5030192;28;20331;-65
2024/02/22 02:58:00;;;;;;;175.15;28.35;;;;;;;;;;5021677;28;20669;-64
2024/02/22 03:00:26;;;;;;;147.75;26.30;;;;;;;;;;5025557;28;20734;-65
2024/02/22 03:02:52;;;;;;;134.32;26.95;;;;;;;;;;5027874;28;20725;-65
2024/02/22 03:05:18;;;;;;;143.63;28.98;;;;;;;;;;5031263;28;20053;-65
2024/02/22 03:07:45;;;;;;;136.38;27.52;;;;;;;;;;5026895;28;20429;-65
2024/02/22 03:10:11;;;;;;;151.15;27.08;;;;;;;;;;5024405;28;20101;-65
2024/02/22 03:12:37;;;;;;;156.18;27.67;;;;;;;;;;5028197;28;20072;-65
2024/02/22 03:15:04;;;;;;;145.20;26.55;;;;;;;;;;5027889;28;20155;-65
2024/02/22 03:17:30;;;;;;;160.25;26.73;;;;;;;;;;5025897;28;20200;-65
2024/02/22 03:19:56;;;;;;;180.73;27.65;;;;;;;;;;5027334;28;20039;-65
2024/02/22 03:22:23;;;;;;;160.68;28.20;;;;;;;;;;5026886;28;20121;-65
2024/02/22 03:24:49;;;;;;;167.45;26.63;;;;;;;;;;5027115;28;20052;-64
2024/02/22 03:27:15;;;;;;;159.07;28.13;;;;;;;;;;5028871;28;20056;-65
2024/02/22 03:29:42;;;;;;;193.50;29.45;;;;;;;;;;5025775;28;20389;-65
2024/02/22 03:32:08;;;;;;;242.30;29.58;;;;;;;;;;5026313;28;20049;-65
2024/02/22 03:34:34;;;;;;;278.67;32.22;;;;;;;;;;5023918;28;20145;-65
2024/02/22 03:37:01;;;;;;;216.20;29.92;;;;;;;;;;5023246;28;20045;-65
2024/02/22 03:39:28;;;;;;;232.90;30.58;;;;;;;;;;5021882;28;20045;-65
2024/02/22 03:41:55;;;;;;;246.20;29.25;;;;;;;;;;5019922;28;20489;-65
2024/02/22 03:44:21;;;;;;;278.00;30.88;;;;;;;;;;5020291;28;20045;-65
2024/02/22 03:46:48;;;;;;;261.65;31.30;;;;;;;;;;5022470;28;20060;-65
2024/02/22 03:49:14;;;;;;;314.90;33.97;;;;;;;;;;5023100;28;20135;-65
2024/02/22 03:51:40;;;;;;;285.90;33.67;;;;;;;;;;5016675;28;20061;-64
2024/02/22 03:54:06;;;;;;;243.93;30.80;;;;;;;;;;5022483;28;20177;-65
2024/02/22 03:56:33;;;;;;;242.38;30.95;;;;;;;;;;5022121;28;20509;-64
2024/02/22 03:58:59;;;;;;;236.20;31.05;;;;;;;;;;5018486;28;20203;-64
2024/02/22 04:01:26;;;;;;;266.88;33.42;;;;;;;;;;5022890;28;20046;-65
2024/02/22 04:03:54;;;;;;;232.73;31.13;;;;;;;;;;5023052;28;20045;-65
2024/02/22 04:06:20;;;;;;;268.42;31.95;;;;;;;;;;5025472;28;20053;-65
2024/02/22 04:08:47;;;;;;;213.50;30.80;;;;;;;;;;5025704;28;20537;-66
2024/02/22 04:11:13;;;;;;;266.98;33.67;;;;;;;;;;5024737;28;20393;-65
2024/02/22 04:13:40;;;;;;;279.85;34.17;;;;;;;;;;5024085;28;20046;-64
2024/02/22 04:16:06;;;;;;;236.77;32.88;;;;;;;;;;5026503;28;21349;-65
2024/02/22 04:18:33;;;;;;;303.30;39.00;;;;;;;;;;5020326;28;20126;-64
2024/02/22 04:21:00;;;;;;;276.52;37.45;;;;;;;;;;5021312;28;20060;-65
2024/02/22 04:23:26;;;;;;;316.40;39.42;;;;;;;;;;5025876;28;20114;-65
2024/02/22 04:25:53;;;;;;;401.45;42.88;;;;;;;;;;5029442;28;20224;-65
2024/02/22 04:28:19;;;;;;;412.85;42.15;;;;;;;;;;5023971;28;20050;-65
2024/02/22 04:30:45;;;;;;;332.52;42.28;;;;;;;;;;5025532;28;20071;-65
2024/02/22 04:33:13;;;;;;;316.25;42.65;;;;;;;;;;5022022;28;20508;-65
2024/02/22 04:35:45;;;;;;;279.92;41.50;;;;;;;;;;5020959;28;20073;-65
2024/02/22 04:38:11;;;;;;;300.67;42.40;;;;;;;;;;5023031;28;20053;-65
2024/02/22 04:40:38;;;;;;;275.92;41.33;;;;;;;;;;5024798;28;20492;-65
2024/02/22 04:43:05;;;;;;;230.02;35.20;;;;;;;;;;5004442;28;20117;-65
2024/02/22 04:45:31;;;;;;;245.38;33.40;;;;;;;;;;5021503;28;20559;-65
2024/02/22 04:48:00;;;;;;;277.45;37.28;;;;;;;;;;5021220;28;20108;-65
2024/02/22 04:50:27;;;;;;;234.30;34.30;;;;;;;;;;5024867;28;20516;-64
2024/02/22 04:52:53;;;;;;;183.77;31.20;;;;;;;;;;5025017;28;20064;-65
2024/02/22 04:55:20;;;;;;;198.75;34.38;;;;;;;;;;5026066;28;20066;-65
2024/02/22 04:57:48;;;;;;;179.73;30.10;;;;;;;;;;5026149;28;20132;-65
2024/02/22 05:00:14;;;;;;;196.10;31.33;;;;;;;;;;5027652;28;20045;-65
2024/02/22 05:02:40;;;;;;;195.23;30.52;;;;;;;;;;5029168;28;20041;-65
2024/02/22 05:05:07;;;;;;;188.27;32.10;;;;;;;;;;5025921;28;20169;-65
2024/02/22 05:07:33;;;;;;;186.77;30.45;;;;;;;;;;5007366;28;20118;-65
2024/02/22 05:10:00;;;;;;;163.63;31.63;;;;;;;;;;5027670;28;20144;-65
2024/02/22 05:12:27;;;;;;;159.65;30.08;;;;;;;;;;5025496;28;20041;-65
2024/02/22 05:14:53;;;;;;;153.82;30.20;;;;;;;;;;5024752;28;20053;-65
2024/02/22 05:17:21;;;;;;;177.88;31.95;;;;;;;;;;5025168;28;20124;-65
2024/02/22 05:19:47;;;;;;;156.25;29.40;;;;;;;;;;5026663;28;20381;-65
2024/02/22 05:22:13;;;;;;;176.63;29.73;;;;;;;;;;5025551;28;20045;-65
2024/02/22 05:24:40;;;;;;;178.90;32.88;;;;;;;;;;5027001;28;20479;-65
2024/02/22 05:27:07;;;;;;;182.90;32.03;;;;;;;;;;5023002;28;20133;-65
2024/02/22 05:29:33;;;;;;;176.77;32.75;;;;;;;;;;5005749;28;20076;-64
2024/02/22 05:31:59;;;;;;;163.90;29.92;;;;;;;;;;5027578;28;20046;-65
2024/02/22 05:34:26;;;;;;;162.68;32.35;;;;;;;;;;5026614;28;20620;-65
2024/02/22 05:36:52;;;;;;;165.50;31.55;;;;;;;;;;5022168;28;21473;-65
2024/02/22 05:39:18;;;;;;;170.05;31.88;;;;;;;;;;5025497;28;20525;-65
2024/02/22 05:41:45;;;;;;;154.30;28.95;;;;;;;;;;5026516;28;20075;-65
2024/02/22 05:44:12;;;;;;;167.35;31.00;;;;;;;;;;5041860;28;20159;-65
2024/02/22 05:46:38;;;;;;;137.57;27.05;;;;;;;;;;5027829;28;20113;-65
2024/02/22 05:49:04;;;;;;;163.85;31.58;;;;;;;;;;5029191;28;20037;-65
2024/02/22 05:51:31;;;;;;;156.40;29.40;;;;;;;;;;5024389;28;20057;-65
2024/02/22 05:53:57;;;;;;;160.52;30.73;;;;;;;;;;5021032;28;20042;-65
2024/02/22 05:56:23;;;;;;;156.00;30.90;;;;;;;;;;5024833;28;20045;-65
2024/02/22 05:58:49;;;;;;;165.70;33.25;;;;;;;;;;5000097;28;20485;-65
2024/02/22 06:01:16;;;;;;;150.15;30.17;;;;;;;;;;5025204;28;20117;-65
2024/02/22 06:03:43;;;;;;;137.77;27.20;;;;;;;;;;5026673;28;20057;-65
2024/02/22 06:06:09;;;;;;;137.50;28.02;;;;;;;;;;5026968;28;20076;-65
2024/02/22 06:08:35;;;;;;;108.53;23.77;;;;;;;;;;5026866;28;20048;-65
2024/02/22 06:11:02;;;;;;;112.53;24.23;;;;;;;;;;5029141;28;20583;-65
2024/02/22 06:13:28;;;;;;;121.40;28.02;;;;;;;;;;5030443;28;20509;-65
2024/02/22 06:15:55;;;;;;;89.95;20.90;;;;;;;;;;5027148;28;20053;-65
2024/02/22 06:18:21;;;;;;;100.85;21.05;;;;;;;;;;5032462;28;20111;-65
2024/02/22 06:20:47;;;;;;;97.95;20.60;;;;;;;;;;5030671;28;20048;-65
2024/02/22 06:23:14;;;;;;;84.63;19.50;;;;;;;;;;5029857;28;20045;-64
2024/02/22 06:25:40;;;;;;;84.07;18.63;;;;;;;;;;5028403;28;20397;-64
2024/02/22 06:28:09;;;;;;;88.97;18.00;;;;;;;;;;5032151;28;20073;-65
2024/02/22 06:30:36;;;;;;;68.65;17.27;;;;;;;;;;5023482;28;20052;-65
2024/02/22 06:33:02;;;;;;;68.45;16.10;;;;;;;;;;5028421;28;20451;-65
2024/02/22 06:35:28;;;;;;;65.88;13.95;;;;;;;;;;5022712;28;20077;-64
2024/02/22 06:37:54;;;;;;;70.80;14.82;;;;;;;;;;5024156;28;20380;-64
2024/02/22 06:40:21;;;;;;;59.17;13.60;;;;;;;;;;5025313;28;20045;-65
2024/02/22 06:42:47;;;;;;;57.80;11.85;;;;;;;;;;5027375;28;20049;-64
2024/02/22 06:45:14;;;;;;;54.03;11.75;;;;;;;;;;5019984;28;20115;-64
2024/02/22 06:47:40;;;;;;;57.13;13.45;;;;;;;;;;5019386;28;20041;-64
2024/02/22 06:50:07;;;;;;;48.78;10.13;;;;;;;;;;5025394;28;20409;-64
2024/02/22 06:52:33;;;;;;;45.70;10.57;;;;;;;;;;5024560;28;20458;-64
2024/02/22 06:54:59;;;;;;;42.92;10.57;;;;;;;;;;5021443;28;20076;-64
2024/02/22 06:57:25;;;;;;;44.97;9.38;;;;;;;;;;5023732;28;20045;-64
2024/02/22 06:59:51;;;;;;;49.05;8.32;;;;;;;;;;5018759;28;20041;-63
2024/02/22 07:02:18;;;;;;;53.67;9.23;;;;;;;;;;5024057;28;20063;-64
2024/02/22 07:04:45;;;;;;;44.50;9.48;;;;;;;;;;5025437;28;20109;-64
2024/02/22 07:07:11;;;;;;;51.88;11.00;;;;;;;;;;5019750;28;20049;-64
2024/02/22 07:09:38;;;;;;;60.42;13.52;;;;;;;;;;5021773;28;20056;-64
2024/02/22 07:12:04;;;;;;;63.75;16.58;;;;;;;;;;4999246;28;20042;-65
2024/02/22 07:14:31;;;;;;;72.38;18.23;;;;;;;;;;5023176;28;20049;-65
2024/02/22 07:16:57;;;;;;;78.90;18.77;;;;;;;;;;5026775;28;20045;-67
2024/02/22 07:19:23;;;;;;;72.88;18.30;;;;;;;;;;5021206;28;20037;-64
2024/02/22 07:21:49;;;;;;;73.88;20.00;;;;;;;;;;5022525;28;20052;-65
2024/02/22 07:24:17;;;;;;;83.28;20.77;;;;;;;;;;5027932;28;20397;-65
2024/02/22 07:26:44;;;;;;;71.20;21.27;;;;;;;;;;5023713;28;20455;-65
2024/02/22 07:29:10;;;;;;;82.53;20.60;;;;;;;;;;5023700;28;20064;-65
2024/02/22 07:31:36;;;;;;;68.00;18.98;;;;;;;;;;5023899;28;20057;-65
2024/02/22 07:34:02;;;;;;;75.97;17.83;;;;;;;;;;5027119;28;20043;-65
2024/02/22 07:36:29;;;;;;;82.57;19.23;;;;;;;;;;5016792;28;20057;-65
2024/02/22 07:38:57;;;;;;;75.53;18.02;;;;;;;;;;5022076;28;20320;-65
2024/02/22 07:41:23;;;;;;;73.82;20.10;;;;;;;;;;5020625;28;20103;-66
2024/02/22 07:43:49;;;;;;;70.65;15.95;;;;;;;;;;5017927;28;20105;-65
2024/02/22 07:46:17;;;;;;;66.18;16.60;;;;;;;;;;5021357;28;20532;-65
2024/02/22 07:48:43;;;;;;;67.65;16.27;;;;;;;;;;5013146;28;20042;-64
2024/02/22 07:51:10;;;;;;;60.95;16.42;;;;;;;;;;5017562;28;20072;-64
2024/02/22 07:53:36;;;;;;;58.22;15.25;;;;;;;;;;5019719;28;20371;-64
2024/02/22 07:56:07;;;;;;;77.82;15.65;;;;;;;;;;5013602;28;20077;-65
2024/02/22 07:58:45;;;;;;;80.40;16.23;;;;;;;;;;5015641;28;20056;-65
2024/02/22 08:01:12;;;;;;;70.30;13.82;;;;;;;;;;5015266;28;20049;-64
2024/02/22 08:03:38;;;;;;;67.43;13.93;;;;;;;;;;5014130;28;20048;-64
2024/02/22 08:06:04;;;;;;;47.95;12.77;;;;;;;;;;4999492;28;20115;-63
2024/02/22 08:08:30;;;;;;;66.45;12.93;;;;;;;;;;5022979;28;20865;-64
2024/02/22 08:10:57;;;;;;;55.47;12.77;;;;;;;;;;5023857;28;20458;-64
2024/02/22 08:13:23;;;;;;;57.58;12.10;;;;;;;;;;5026920;28;20037;-65
2024/02/22 08:15:49;;;;;;;65.85;12.82;;;;;;;;;;5022377;28;20120;-64
2024/02/22 08:18:15;;;;;;;62.08;11.23;;;;;;;;;;5026431;28;20037;-65
2024/02/22 08:20:42;;;;;;;56.15;10.63;;;;;;;;;;5026603;28;20430;-65
2024/02/22 08:23:08;;;;;;;55.13;10.27;;;;;;;;;;5022864;28;20461;-65
2024/02/22 08:25:36;;;;;;;59.65;12.02;;;;;;;;;;5022497;28;20134;-65
2024/02/22 08:28:04;;;;;;;65.22;10.05;;;;;;;;;;5028861;28;20105;-64
2024/02/22 08:30:30;;;;;;;62.10;10.98;;;;;;;;;;5024996;28;20456;-65
2024/02/22 08:32:58;;;;;;;69.88;11.23;;;;;;;;;;5025594;28;20041;-65
2024/02/22 08:35:24;;;;;;;55.53;9.73;;;;;;;;;;5028312;28;20071;-65
2024/02/22 08:37:50;;;;;;;56.90;9.70;;;;;;;;;;5039459;28;20049;-65
2024/02/22 08:40:16;;;;;;;49.30;10.15;;;;;;;;;;5044664;28;20110;-65
2024/02/22 08:42:43;;;;;;;66.43;11.10;;;;;;;;;;5029054;28;20442;-65
2024/02/22 08:45:09;;;;;;;58.70;10.98;;;;;;;;;;5026173;28;20488;-65
2024/02/22 08:47:35;;;;;;;44.83;10.00;;;;;;;;;;5027408;28;20047;-65
2024/02/22 08:50:04;;;;;;;52.75;8.75;;;;;;;;;;5028640;28;20483;-65
2024/02/22 08:52:30;;;;;;;59.67;10.93;;;;;;;;;;5027736;28;20044;-65
2024/02/22 08:54:57;;;;;;;64.60;11.75;;;;;;;;;;5044990;28;20121;-63
2024/02/22 08:57:24;;;;;;;60.60;11.75;;;;;;;;;;5027974;28;20469;-82
2024/02/22 08:59:51;;;;;;;55.50;11.15;;;;;;;;;;5026318;28;20444;-65
2024/02/22 09:02:17;;;;;;;44.75;9.50;;;;;;;;;;5046985;28;20098;-63
2024/02/22 09:04:44;;;;;;;53.70;10.05;;;;;;;;;;5043168;28;20110;-65
2024/02/22 09:07:10;;;;;;;58.92;11.20;;;;;;;;;;5043855;28;20048;-65
2024/02/22 09:09:37;;;;;;;64.57;11.23;;;;;;;;;;5026353;28;20071;-64
2024/02/22 09:12:03;;;;;;;59.67;12.00;;;;;;;;;;5023518;28;20044;-63
2024/02/22 09:14:31;;;;;;;54.35;10.77;;;;;;;;;;5047463;28;20341;-63
2024/02/22 09:16:57;;;;;;;55.83;12.40;;;;;;;;;;5044017;28;20036;-63
2024/02/22 09:19:25;;;;;;;53.47;10.85;;;;;;;;;;5044333;28;20042;-62
2024/02/22 09:21:54;;;;;;;63.17;10.18;;;;;;;;;;5044183;28;20108;-63
2024/02/22 09:24:21;;;;;;;64.78;12.80;;;;;;;;;;5050178;28;20041;-62
2024/02/22 09:26:47;;;;;;;53.22;12.68;;;;;;;;;;5029957;28;20153;-63
2024/02/22 09:29:14;;;;;;;56.60;14.05;;;;;;;;;;5023204;28;20062;-64
2024/02/22 09:31:40;;;;;;;52.53;11.88;;;;;;;;;;5026585;28;20120;-64
2024/02/22 09:34:06;;;;;;;52.38;10.98;;;;;;;;;;5006185;28;20512;-63
2024/02/22 09:36:33;;;;;;;45.22;10.25;;;;;;;;;;5025411;28;20095;-64
2024/02/22 09:38:59;;;;;;;60.05;11.30;;;;;;;;;;5025314;28;20120;-64
2024/02/22 09:41:26;;;;;;;48.03;10.68;;;;;;;;;;5022608;28;20057;-64
2024/02/22 09:43:53;;;;;;;46.20;9.93;;;;;;;;;;5022483;28;20085;-64
2024/02/22 09:46:19;;;;;;;45.38;11.20;;;;;;;;;;5021843;28;20053;-64
2024/02/22 09:48:45;;;;;;;57.70;11.75;;;;;;;;;;5024310;28;20037;-64
2024/02/22 09:51:12;;;;;;;47.15;11.18;;;;;;;;;;5019753;28;20052;-64
2024/02/22 09:53:38;;;;;;;48.00;10.43;;;;;;;;;;5027562;28;20045;-68
2024/02/22 09:56:06;;;;;;;46.25;9.20;;;;;;;;;;5019365;28;20498;-64
2024/02/22 09:58:32;;;;;;;53.67;11.40;;;;;;;;;;5022243;28;20089;-64
2024/02/22 10:01:00;;;;;;;52.92;11.93;;;;;;;;;;5020997;28;20048;-64
2024/02/22 10:03:31;;;;;;;47.97;11.63;;;;;;;;;;5019395;28;20056;-64
2024/02/22 10:05:58;;;;;;;42.47;13.35;;;;;;;;;;5025084;28;20051;-63
2024/02/22 10:08:24;;;;;;;42.45;12.95;;;;;;;;;;5023616;28;20708;-63
2024/02/22 10:10:55;;;;;;;45.28;13.80;;;;;;;;;;5024499;28;20061;-63
2024/02/22 10:13:22;;;;;;;42.15;12.45;;;;;;;;;;5024312;28;20060;-63
2024/02/22 10:15:49;;;;;;;38.78;13.07;;;;;;;;;;5023005;28;20431;-63
2024/02/22 10:18:25;;;;;;;38.10;11.48;;;;;;;;;;5024144;28;20065;-63
2024/02/22 10:20:51;;;;;;;28.30;11.38;;;;;;;;;;5025040;28;20508;-63
2024/02/22 10:23:19;;;;;;;48.10;12.30;;;;;;;;;;5006545;28;20501;-64
2024/02/22 10:25:45;;;;;;;36.47;12.52;;;;;;;;;;5020149;28;20132;-63
2024/02/22 10:28:15;;;;;;;34.45;11.27;;;;;;;;;;5022583;28;20071;-64
2024/02/22 10:30:43;;;;;;;31.73;10.55;;;;;;;;;;5044612;28;20071;-64
2024/02/22 10:33:11;;;;;;;32.78;11.75;;;;;;;;;;5027288;28;20104;-63
2024/02/22 10:35:40;;;;;;;30.77;11.45;;;;;;;;;;5041970;28;20136;-64
2024/02/22 10:38:09;;;;;;;30.10;10.60;;;;;;;;;;5025599;28;20384;-63
2024/02/22 10:40:36;;;;;;;29.70;10.65;;;;;;;;;;5026006;28;20136;-64
2024/02/22 10:43:03;;;;;;;31.15;10.80;;;;;;;;;;5018063;28;20575;-64
2024/02/22 10:45:30;;;;;;;25.50;10.13;;;;;;;;;;5024174;28;20041;-63
2024/02/22 10:47:57;;;;;;;31.23;9.80;;;;;;;;;;5027784;28;20510;-64
2024/02/22 10:50:25;;;;;;;26.23;9.52;;;;;;;;;;5023517;28;20049;-64
2024/02/22 10:52:52;;;;;;;28.63;10.07;;;;;;;;;;5022713;28;20464;-64
2024/02/22 10:55:18;;;;;;;27.00;10.57;;;;;;;;;;5042437;28;20044;-64
2024/02/22 10:57:46;;;;;;;27.10;10.55;;;;;;;;;;5024063;28;20048;-69
2024/02/22 11:00:14;;;;;;;24.30;10.27;;;;;;;;;;5024526;28;20068;-64
2024/02/22 11:02:41;;;;;;;33.25;11.43;;;;;;;;;;5044955;28;20499;-64
2024/02/22 11:05:09;;;;;;;28.65;10.77;;;;;;;;;;5025187;28;20055;-64
2024/02/22 11:07:42;;;;;;;32.50;10.55;;;;;;;;;;5023671;28;20041;-64
2024/02/22 11:10:10;;;;;;;24.88;10.68;;;;;;;;;;5020803;28;20045;-63
2024/02/22 11:12:37;;;;;;;30.00;10.70;;;;;;;;;;5044500;28;20120;-64
2024/02/22 11:15:07;;;;;;;24.95;11.48;;;;;;;;;;5029210;28;20413;-77
2024/02/22 11:17:33;;;;;;;24.92;11.07;;;;;;;;;;5010902;28;20047;-63
2024/02/22 11:20:07;;;;;;;28.25;11.38;;;;;;;;;;5042364;28;20044;-64
2024/02/22 11:22:35;;;;;;;31.00;11.90;;;;;;;;;;5044021;28;20089;-63
2024/02/22 11:25:03;;;;;;;32.67;12.70;;;;;;;;;;5026314;28;20051;-63
2024/02/22 11:27:29;;;;;;;24.85;11.15;;;;;;;;;;5037174;28;20442;-62
2024/02/22 11:29:55;;;;;;;29.33;11.27;;;;;;;;;;5024751;28;20416;-63
2024/02/22 11:32:21;;;;;;;24.10;11.60;;;;;;;;;;5020744;28;20065;-64
2024/02/22 11:34:51;;;;;;;32.15;13.98;;;;;;;;;;5019992;28;20045;-64
2024/02/22 11:37:18;;;;;;;28.58;13.63;;;;;;;;;;5023003;28;20052;-64
2024/02/22 11:39:45;;;;;;;26.60;14.38;;;;;;;;;;5021242;28;20482;-64
2024/02/22 11:42:15;;;;;;;28.85;14.52;;;;;;;;;;5022210;28;20037;-64
2024/02/22 11:44:41;;;;;;;29.33;14.25;;;;;;;;;;5024591;28;20053;-64
2024/02/22 11:47:07;;;;;;;30.45;15.88;;;;;;;;;;5023312;28;20101;-63
2024/02/22 11:49:35;;;;;;;27.77;15.23;;;;;;;;;;5022403;28;20037;-64
2024/02/22 11:52:02;;;;;;;27.15;13.95;;;;;;;;;;5021665;28;20124;-64
2024/02/22 11:54:28;;;;;;;25.10;13.13;;;;;;;;;;5022337;28;20434;-63
2024/02/22 11:56:54;;;;;;;21.35;11.45;;;;;;;;;;5020341;28;20041;-63
2024/02/22 11:59:20;;;;;;;22.23;12.40;;;;;;;;;;5013681;28;20050;-64
2024/02/22 12:01:48;;;;;;;26.40;11.60;;;;;;;;;;5024691;28;20052;-64
2024/02/22 12:04:14;;;;;;;21.55;10.85;;;;;;;;;;5018197;28;20124;-64
2024/02/22 12:06:41;;;;;;;14.80;9.60;;;;;;;;;;5023977;28;20127;-64
2024/02/22 12:09:09;;;;;;;23.63;11.02;;;;;;;;;;5020750;28;20053;-64
2024/02/22 12:11:36;;;;;;;20.98;9.32;;;;;;;;;;5021750;28;20092;-64
2024/02/22 12:14:03;;;;;;;21.73;9.73;;;;;;;;;;5016831;28;20375;-64
2024/02/22 12:16:30;;;;;;;17.52;9.90;;;;;;;;;;5018332;28;20076;-64
2024/02/22 12:18:57;;;;;;;21.92;9.88;;;;;;;;;;5016314;28;20046;-64
2024/02/22 12:21:26;;;;;;;21.52;9.48;;;;;;;;;;5016501;28;20132;-64
2024/02/22 12:23:59;;;;;;;20.67;9.43;;;;;;;;;;5019740;28;20053;-64
2024/02/22 12:26:26;;;;;;;16.85;9.10;;;;;;;;;;5021447;28;20053;-63
2024/02/22 12:28:53;;;;;;;14.93;9.20;;;;;;;;;;5023036;28;20064;-64
2024/02/22 12:31:21;;;;;;;15.88;7.97;;;;;;;;;;5022578;28;20167;-64
2024/02/22 12:33:49;;;;;;;14.55;8.55;;;;;;;;;;5022369;28;20049;-64
2024/02/22 12:36:16;;;;;;;12.30;7.50;;;;;;;;;;5021601;28;20127;-68
2024/02/22 12:38:42;;;;;;;9.15;6.20;;;;;;;;;;5015390;28;20073;-64
2024/02/22 12:41:08;;;;;;;19.83;6.57;;;;;;;;;;5020863;28;20049;-63
2024/02/22 12:43:34;;;;;;;7.53;4.32;;;;;;;;;;5017478;28;20452;-64
2024/02/22 12:46:00;;;;;;;5.15;3.78;;;;;;;;;;5019429;28;20489;-63
2024/02/22 12:48:27;;;;;;;4.93;2.78;;;;;;;;;;5020651;28;20116;-64
2024/02/22 12:50:53;;;;;;;6.13;3.47;;;;;;;;;;5026196;28;20490;-64
2024/02/22 12:53:19;;;;;;;6.72;2.65;;;;;;;;;;5031414;28;20484;-64
2024/02/22 12:55:47;;;;;;;4.25;2.22;;;;;;;;;;5035520;28;20041;-64
2024/02/22 12:58:14;;;;;;;3.17;2.03;;;;;;;;;;5030251;28;20477;-64
2024/02/22 13:00:41;;;;;;;3.33;2.10;;;;;;;;;;5030698;28;20041;-64
2024/02/22 13:03:08;;;;;;;4.30;2.35;;;;;;;;;;5033575;28;20133;-64
2024/02/22 13:05:34;;;;;;;4.45;2.30;;;;;;;;;;5038856;28;20121;-64
2024/02/22 13:08:00;;;;;;;3.90;1.90;;;;;;;;;;5032429;28;20044;-64
2024/02/22 13:10:26;;;;;;;3.50;2.10;;;;;;;;;;5042937;28;20132;-64
2024/02/22 13:12:53;;;;;;;4.10;2.20;;;;;;;;;;5031699;28;20041;-64
2024/02/22 13:15:19;;;;;;;3.40;2.08;;;;;;;;;;5041296;28;20145;-64
2024/02/22 13:17:45;;;;;;;3.58;2.25;;;;;;;;;;5033707;28;20040;-64
2024/02/22 13:20:12;;;;;;;4.03;2.00;;;;;;;;;;5032609;28;20051;-64
2024/02/22 13:22:39;;;;;;;3.90;2.20;;;;;;;;;;5036779;28;20124;-64
2024/02/22 13:25:06;;;;;;;3.67;2.15;;;;;;;;;;5033560;28;20124;-64
2024/02/22 13:27:33;;;;;;;4.13;2.50;;;;;;;;;;5034640;28;20052;-64
2024/02/22 13:29:59;;;;;;;3.60;2.50;;;;;;;;;;5040266;28;20516;-64
2024/02/22 13:32:26;;;;;;;3.90;2.45;;;;;;;;;;5035091;28;20461;-64
2024/02/22 13:34:52;;;;;;;3.42;2.35;;;;;;;;;;5037802;28;20045;-64
2024/02/22 13:37:18;;;;;;;8.10;2.78;;;;;;;;;;5059447;28;20134;-64
2024/02/22 13:39:44;;;;;;;4.38;2.85;;;;;;;;;;5035321;28;20453;-63
2024/02/22 13:42:12;;;;;;;3.03;2.03;;;;;;;;;;5042432;28;20040;-63
2024/02/22 13:44:39;;;;;;;4.85;2.53;;;;;;;;;;5058615;28;20040;-63
2024/02/22 13:47:07;;;;;;;6.38;2.22;;;;;;;;;;5062002;28;20049;-63
2024/02/22 13:49:33;;;;;;;3.90;2.50;;;;;;;;;;5035393;28;20366;-63
2024/02/22 13:51:59;;;;;;;3.78;2.63;;;;;;;;;;5053196;28;20446;-63
2024/02/22 13:54:27;;;;;;;4.13;2.80;;;;;;;;;;5053219;28;20085;-63
2024/02/22 13:56:53;;;;;;;4.25;2.88;;;;;;;;;;5046236;28;20081;-63
2024/02/22 13:59:19;;;;;;;5.18;2.90;;;;;;;;;;5041126;28;20069;-64
2024/02/22 14:01:46;;;;;;;4.75;3.00;;;;;;;;;;5035198;28;20049;-64
2024/02/22 14:04:12;;;;;;;4.38;3.00;;;;;;;;;;5034316;28;20139;-64
2024/02/22 14:06:39;;;;;;;9.95;3.25;;;;;;;;;;5018012;28;20041;-64
2024/02/22 14:09:05;;;;;;;4.35;2.80;;;;;;;;;;5034863;28;20048;-64
2024/02/22 14:11:31;;;;;;;4.97;3.08;;;;;;;;;;5052585;28;20033;-64
2024/02/22 14:13:57;;;;;;;3.90;2.90;;;;;;;;;;5034653;28;20452;-64